Acton, Canada
Current Conditions -  °F | °C
As of 11:03 PM on Wednesday 17 Dec 2014 (Local Time) from CYKF Reporting Station
Overcast Overcast  
Wind Chill: 15°   Ceiling: 1700
Heat Index: 28°   Visibility: 9mi
Dew Point: 25°   Wind: 21mph
Humidity: 86%   Direction: 260°W
Pressure: 29.97"   Gusts: 29mph
Location:  43.63°N, 80.03°W
Report Text: CYKF 180403Z AUTO 26018G25KT 9SM BKN017 OVC024 M02/M04 A2997 RMK SLP162
Loading
Personal Weather Stations






























Interactive Weather Map New forecast layout! Learn more

10-Day Weather Forecast

Advertisements
Track Severe Weather on mobile